Schefferville, Canada
Current Conditions -  °F | °C
As of 12:00 AM on Sunday 21 Dec 2014 (Local Time) from CYKL Reporting Station
Scattered Clouds Scattered Clouds  
Wind Chill: -12°   Ceiling: Unl
Heat Index:   Visibility: 9mi
Dew Point: -2°   Wind: 8mph
Humidity: 85%   Direction: 290°WNW
Pressure: 30.13"   Gusts: 17mph
Location:  54.8°N, 66.83°W
Report Text: CYKL 210500Z AUTO 29007G15KT 9SM FEW017 SCT170 SCT220 M17/M19 A3013 RMK SLP259
Loading
Personal Weather Stations






























Interactive Weather Map New forecast layout! Learn more

10-Day Weather Forecast

Advertisements
Track Severe Weather on mobile